createdAt,value
2022-11-26T00:01:22.712Z,72.21
2022-11-26T00:03:49.601Z,71.98
2022-11-26T00:06:38.773Z,72.04
2022-11-26T00:09:14.013Z,71.89
2022-11-26T00:11:41.405Z,72.16
2022-11-26T00:14:15.729Z,71.63
2022-11-26T00:16:43.618Z,72.62
2022-11-26T00:19:10.768Z,72.71
2022-11-26T00:21:41.132Z,72.28
2022-11-26T00:24:27.579Z,72.59
2022-11-26T00:26:57.593Z,72.84
2022-11-26T00:29:24.137Z,72.41
2022-11-26T00:31:50.860Z,72.46
2022-11-26T00:34:17.375Z,72.64
2022-11-26T00:36:44.529Z,72.42
2022-11-26T00:39:21.337Z,72.68
2022-11-26T00:41:52.093Z,72.99
2022-11-26T00:44:22.803Z,73.29
2022-11-26T00:46:49.742Z,73.83
2022-11-26T00:49:17.332Z,73.28
2022-11-26T00:51:45.956Z,73.21
2022-11-26T00:54:16.469Z,72.34
2022-11-26T00:56:43.017Z,72.61
2022-11-26T00:59:20.820Z,72.30
2022-11-26T01:01:47.644Z,72.51
2022-11-26T01:04:14.603Z,73.02
2022-11-26T01:06:44.674Z,72.35
2022-11-26T01:09:19.660Z,72.06
2022-11-26T01:11:50.948Z,72.38
2022-11-26T01:14:22.747Z,73.59
2022-11-26T01:16:51.634Z,73.54
2022-11-26T01:19:18.110Z,73.48
2022-11-26T01:21:44.710Z,72.79
2022-11-26T01:24:11.202Z,72.52
2022-11-26T01:26:43.878Z,72.62
2022-11-26T01:29:17.376Z,72.55
2022-11-26T01:31:44.204Z,72.79
2022-11-26T01:34:10.797Z,73.38
2022-11-26T01:36:40.470Z,73.28
2022-11-26T01:39:16.801Z,72.93
2022-11-26T01:42:12.221Z,73.25
2022-11-26T01:44:39.014Z,73.64
2022-11-26T01:47:28.171Z,73.52
2022-11-26T01:50:28.857Z,73.62
2022-11-26T01:53:01.900Z,73.80
2022-11-26T01:55:37.928Z,72.72
2022-11-26T01:58:09.792Z,72.71
2022-11-26T02:00:36.320Z,72.84
2022-11-26T02:03:05.394Z,73.00
2022-11-26T02:05:42.401Z,73.40
2022-11-26T02:08:11.476Z,73.38
2022-11-26T02:10:37.992Z,73.57
2022-11-26T02:13:05.701Z,73.37
2022-11-26T02:15:49.864Z,73.12
2022-11-26T02:18:16.868Z,73.13
2022-11-26T02:21:00.929Z,72.57
2022-11-26T02:24:13.171Z,73.04
2022-11-26T02:27:12.699Z,72.67
2022-11-26T02:30:09.300Z,72.58
2022-11-26T02:32:54.355Z,72.57
2022-11-26T02:35:37.512Z,72.95
2022-11-26T02:38:13.712Z,73.36
2022-11-26T02:40:40.184Z,73.76
2022-11-26T02:43:06.648Z,73.10
2022-11-26T02:45:42.600Z,72.54
2022-11-26T02:48:20.034Z,72.91
2022-11-26T02:50:53.117Z,72.70
2022-11-26T02:53:23.415Z,72.53
2022-11-26T02:56:06.756Z,72.46
2022-11-26T02:58:34.582Z,71.54
2022-11-26T03:01:09.383Z,71.33
2022-11-26T03:03:46.344Z,71.93
2022-11-26T03:06:16.284Z,71.99
2022-11-26T03:08:45.353Z,71.77
2022-11-26T03:11:12.727Z,71.50
2022-11-26T03:13:39.241Z,71.38
2022-11-26T03:16:05.967Z,71.59
2022-11-26T03:18:32.495Z,72.24
2022-11-26T03:20:59.875Z,72.16
2022-11-26T03:23:26.313Z,72.25
2022-11-26T03:25:52.775Z,72.26
2022-11-26T03:28:19.317Z,72.20
2022-11-26T03:30:45.769Z,71.85
2022-11-26T03:33:12.231Z,72.13
2022-11-26T03:35:38.687Z,71.98
2022-11-26T03:38:05.243Z,72.80
2022-11-26T03:40:31.848Z,73.16
2022-11-26T03:42:58.331Z,72.38
2022-11-26T03:45:25.594Z,72.04
2022-11-26T03:47:52.125Z,71.82
2022-11-26T03:50:18.597Z,72.13
2022-11-26T03:52:45.025Z,72.64
2022-11-26T03:55:11.620Z,72.13
2022-11-26T03:57:38.140Z,72.17
2022-11-26T04:00:06.673Z,72.35
2022-11-26T04:02:33.137Z,71.85
2022-11-26T04:04:59.621Z,71.33
2022-11-26T04:07:26.131Z,71.61
2022-11-26T04:09:52.674Z,71.52
2022-11-26T04:12:19.172Z,71.48
2022-11-26T04:14:45.621Z,71.72
2022-11-26T04:17:12.152Z,72.01
2022-11-26T04:19:38.568Z,72.56
2022-11-26T04:22:04.991Z,72.69
2022-11-26T04:24:31.458Z,72.76
2022-11-26T04:26:57.916Z,72.84
2022-11-26T04:29:24.385Z,72.87
2022-11-26T04:31:51.098Z,73.30
2022-11-26T04:34:17.573Z,73.91
2022-11-26T04:36:44.137Z,73.68
2022-11-26T04:39:11.051Z,73.61
2022-11-26T04:41:37.492Z,73.16
2022-11-26T04:44:04.667Z,72.60
2022-11-26T04:46:31.152Z,72.22
2022-11-26T04:48:57.593Z,72.11
2022-11-26T04:51:24.104Z,72.29
2022-11-26T04:53:54.533Z,72.78
2022-11-26T04:56:23.413Z,72.93
2022-11-26T04:58:49.964Z,72.37
2022-11-26T05:01:16.523Z,72.34
2022-11-26T05:03:43.036Z,71.91
2022-11-26T05:06:10.714Z,72.37
2022-11-26T05:08:37.356Z,71.84
2022-11-26T05:11:03.950Z,71.80
2022-11-26T05:13:30.564Z,71.76
2022-11-26T05:15:57.111Z,71.82
2022-11-26T05:18:23.785Z,72.12
2022-11-26T05:20:50.242Z,72.36
2022-11-26T05:23:16.898Z,72.37
2022-11-26T05:25:43.394Z,72.14
2022-11-26T05:28:10.365Z,72.45
2022-11-26T05:30:37.421Z,72.58
2022-11-26T05:33:03.989Z,72.78
2022-11-26T05:35:30.415Z,72.48
2022-11-26T05:37:57.016Z,72.11
2022-11-26T05:40:23.535Z,72.28
2022-11-26T05:42:50.072Z,72.30
2022-11-26T05:45:16.565Z,71.84
2022-11-26T05:47:43.233Z,71.68
2022-11-26T05:50:10.510Z,71.75
2022-11-26T05:52:37.036Z,71.47
2022-11-26T05:55:04.090Z,71.80
2022-11-26T05:57:30.552Z,72.08
2022-11-26T05:59:57.065Z,72.46
2022-11-26T06:02:23.798Z,72.40
2022-11-26T06:04:50.363Z,72.48
2022-11-26T06:07:16.829Z,72.95
2022-11-26T06:09:43.384Z,73.27
2022-11-26T06:12:09.878Z,72.91
2022-11-26T06:14:40.401Z,72.87
2022-11-26T06:17:09.369Z,72.84
2022-11-26T06:19:35.847Z,72.71
2022-11-26T06:22:02.425Z,72.84
2022-11-26T06:24:29.233Z,72.53
2022-11-26T06:26:55.733Z,72.50
2022-11-26T06:29:26.421Z,72.18
2022-11-26T06:31:54.621Z,72.53
2022-11-26T06:34:21.274Z,72.30
2022-11-26T06:36:47.836Z,72.03
2022-11-26T06:39:14.339Z,72.10
2022-11-26T06:41:40.897Z,71.99
2022-11-26T06:44:07.369Z,71.85
2022-11-26T06:46:35.282Z,71.63
2022-11-26T06:49:05.363Z,71.57
2022-11-26T06:51:32.900Z,71.90
2022-11-26T06:53:59.481Z,71.99
2022-11-26T06:56:26.053Z,72.08
2022-11-26T06:58:55.209Z,71.91
2022-11-26T07:01:25.969Z,71.82
2022-11-26T07:03:54.262Z,71.72
2022-11-26T07:06:33.138Z,71.91
2022-11-26T07:09:09.015Z,72.29
2022-11-26T07:11:38.358Z,72.43
2022-11-26T07:14:06.415Z,72.61
2022-11-26T07:16:33.842Z,72.55
2022-11-26T07:19:02.926Z,72.57
2022-11-26T07:21:31.000Z,72.22
2022-11-26T07:23:58.899Z,71.99
2022-11-26T07:26:25.367Z,72.68
2022-11-26T07:28:52.044Z,71.97
2022-11-26T07:31:22.265Z,71.83
2022-11-26T07:33:50.181Z,71.68
2022-11-26T07:36:24.199Z,71.13
2022-11-26T07:38:54.661Z,72.01
2022-11-26T07:41:21.793Z,72.74
2022-11-26T07:43:48.399Z,72.59
2022-11-26T07:46:19.657Z,72.29
2022-11-26T07:48:46.317Z,72.16
2022-11-26T07:51:22.722Z,71.66
2022-11-26T07:53:50.413Z,72.44
2022-11-26T07:56:18.298Z,72.39
2022-11-26T07:58:45.786Z,72.28
2022-11-26T08:01:17.879Z,72.38
2022-11-26T08:03:48.055Z,72.63
2022-11-26T08:06:20.048Z,72.45
2022-11-26T08:08:47.533Z,72.49
2022-11-26T08:11:21.428Z,71.76
2022-11-26T08:13:51.973Z,71.57
2022-11-26T08:16:18.540Z,71.13
2022-11-26T08:18:45.163Z,71.03
2022-11-26T08:21:11.912Z,70.51
2022-11-26T08:23:39.274Z,70.26
2022-11-26T08:26:25.046Z,70.25
2022-11-26T08:28:52.153Z,71.39
2022-11-26T08:31:19.273Z,71.52
2022-11-26T08:33:46.539Z,71.67
2022-11-26T08:36:13.378Z,71.16
2022-11-26T08:38:40.336Z,71.05
2022-11-26T08:41:13.275Z,70.64
2022-11-26T08:44:05.142Z,70.09
2022-11-26T08:46:27.099Z,69.99
2022-11-26T08:48:58.605Z,70.22
2022-11-26T08:51:25.616Z,70.02
2022-11-26T08:53:52.543Z,69.64
2022-11-26T08:56:19.387Z,69.64
2022-11-26T08:58:46.583Z,69.87
2022-11-26T09:01:22.536Z,69.34
2022-11-26T09:03:51.657Z,69.54
2022-11-26T09:06:20.921Z,69.93
2022-11-26T09:09:06.953Z,70.98
2022-11-26T09:11:37.018Z,71.68
2022-11-26T09:14:04.419Z,72.16
2022-11-26T09:16:31.790Z,72.22
2022-11-26T09:19:03.941Z,71.75
2022-11-26T09:21:30.463Z,71.18
2022-11-26T09:23:56.921Z,71.05
2022-11-26T09:26:25.299Z,70.98
2022-11-26T09:28:52.583Z,70.96
2022-11-26T09:31:19.685Z,70.92
2022-11-26T09:33:46.420Z,71.50
2022-11-26T09:36:15.227Z,71.91
2022-11-26T09:38:42.268Z,71.86
2022-11-26T09:41:30.116Z,71.50
2022-11-26T09:44:22.323Z,71.47
2022-11-26T09:47:14.216Z,71.70
2022-11-26T09:49:51.423Z,70.43
2022-11-26T09:52:22.440Z,71.16
2022-11-26T09:55:01.556Z,70.22
2022-11-26T09:58:00.327Z,69.89
2022-11-26T10:00:42.466Z,70.14
2022-11-26T10:03:25.740Z,70.20
2022-11-26T10:06:07.618Z,69.03
2022-11-26T10:08:39.820Z,69.00
2022-11-26T10:11:24.742Z,68.14
2022-11-26T10:14:29.381Z,67.64
2022-11-26T10:17:09.734Z,67.81
2022-11-26T10:19:50.732Z,67.55
2022-11-26T10:22:34.818Z,67.32
2022-11-26T10:25:04.304Z,67.72
2022-11-26T10:27:34.867Z,68.02
2022-11-26T10:30:16.330Z,68.32
2022-11-26T10:32:46.294Z,67.92
2022-11-26T10:35:21.615Z,68.19
2022-11-26T10:37:49.275Z,68.40
2022-11-26T10:40:25.949Z,67.92
2022-11-26T10:43:06.214Z,69.41
2022-11-26T10:45:40.239Z,68.56
2022-11-26T10:48:31.793Z,67.81
2022-11-26T10:51:00.086Z,68.63
2022-11-26T10:53:31.070Z,68.26
2022-11-26T10:56:06.975Z,68.07
2022-11-26T10:58:43.563Z,67.73
2022-11-26T11:01:15.261Z,67.80
2022-11-26T11:04:13.331Z,68.35
2022-11-26T11:06:44.309Z,67.67
2022-11-26T11:09:37.372Z,65.94
2022-11-26T11:12:23.585Z,66.45
2022-11-26T11:14:51.728Z,66.19
2022-11-26T11:17:30.349Z,66.42
2022-11-26T11:20:26.995Z,66.27
2022-11-26T11:23:06.911Z,66.09
2022-11-26T11:25:36.992Z,66.05
2022-11-26T11:28:12.651Z,65.67
2022-11-26T11:30:41.536Z,66.11
2022-11-26T11:33:24.214Z,66.07
2022-11-26T11:36:13.377Z,65.72
2022-11-26T11:38:58.397Z,65.59
2022-11-26T11:41:29.031Z,65.62
2022-11-26T11:44:16.309Z,65.27
2022-11-26T11:47:07.073Z,65.42
2022-11-26T11:49:49.945Z,65.97
2022-11-26T11:52:47.840Z,65.35
2022-11-26T11:55:32.337Z,65.12
2022-11-26T11:58:38.069Z,65.51
2022-11-26T12:01:30.833Z,65.77
2022-11-26T12:05:03.441Z,65.81
2022-11-26T12:07:46.557Z,65.96
2022-11-26T12:10:43.643Z,65.23
2022-11-26T12:13:15.116Z,65.17
2022-11-26T12:16:02.981Z,64.23
2022-11-26T12:18:45.350Z,64.92
2022-11-26T12:21:16.462Z,65.44
2022-11-26T12:24:07.002Z,64.90
2022-11-26T12:27:04.591Z,64.93
2022-11-26T12:30:01.081Z,65.23
2022-11-26T12:32:40.962Z,65.45
2022-11-26T12:35:38.480Z,65.04
2022-11-26T12:38:27.242Z,65.47
2022-11-26T12:41:04.842Z,65.71
2022-11-26T12:44:13.490Z,66.14
2022-11-26T12:46:52.252Z,66.31
2022-11-26T12:49:47.868Z,66.44
2022-11-26T12:52:32.662Z,66.24
2022-11-26T12:55:20.618Z,66.07
2022-11-26T12:57:58.905Z,65.32
2022-11-26T13:00:36.710Z,65.13
2022-11-26T13:03:06.955Z,64.91
2022-11-26T13:05:55.904Z,64.37
2022-11-26T13:08:32.891Z,64.67
2022-11-26T13:11:57.112Z,64.98
2022-11-26T13:14:47.577Z,65.01
2022-11-26T13:17:18.522Z,65.17
2022-11-26T13:19:57.096Z,65.42
2022-11-26T13:23:05.261Z,65.66
2022-11-26T13:25:47.568Z,66.90
2022-11-26T13:28:18.307Z,67.14
2022-11-26T13:31:38.018Z,66.54
2022-11-26T13:34:33.797Z,66.86
2022-11-26T13:37:36.113Z,66.98
2022-11-26T13:40:46.228Z,66.52
2022-11-26T13:44:08.400Z,66.62
2022-11-26T13:46:46.866Z,66.79
2022-11-26T13:49:38.290Z,66.67
2022-11-26T13:52:11.807Z,66.40
2022-11-26T13:55:04.577Z,66.19
2022-11-26T13:57:59.364Z,66.20
2022-11-26T14:00:35.488Z,66.50
2022-11-26T14:03:03.675Z,66.59
2022-11-26T14:05:48.756Z,65.14
2022-11-26T14:08:43.845Z,65.10
2022-11-26T14:11:12.497Z,65.62
2022-11-26T14:13:39.239Z,65.48
2022-11-26T14:16:10.621Z,64.98
2022-11-26T14:18:49.386Z,64.59
2022-11-26T14:21:17.740Z,65.89
2022-11-26T14:23:46.482Z,66.25
2022-11-26T14:26:28.105Z,66.33
2022-11-26T14:29:13.318Z,66.99
2022-11-26T14:31:51.104Z,67.12
2022-11-26T14:34:38.667Z,67.48
2022-11-26T14:37:15.390Z,66.81
2022-11-26T14:39:42.310Z,66.98
2022-11-26T14:42:16.903Z,66.76
2022-11-26T14:44:44.125Z,67.09
2022-11-26T14:47:21.901Z,67.36
2022-11-26T14:49:55.681Z,67.41
2022-11-26T14:52:33.323Z,67.60
2022-11-26T14:55:06.972Z,67.56
2022-11-26T14:58:09.772Z,68.46
2022-11-26T15:00:37.343Z,68.64
2022-11-26T15:03:04.567Z,68.30
2022-11-26T15:05:34.069Z,67.68
2022-11-26T15:08:07.306Z,67.91
2022-11-26T15:10:52.344Z,67.85
2022-11-26T15:13:46.383Z,68.11
2022-11-26T15:16:36.093Z,67.94
2022-11-26T15:19:05.845Z,68.02
2022-11-26T15:21:33.813Z,67.45
2022-11-26T15:24:07.924Z,67.57
2022-11-26T15:26:36.726Z,68.08
2022-11-26T15:29:31.966Z,67.50
2022-11-26T15:31:59.257Z,68.49
2022-11-26T15:34:28.912Z,68.30
2022-11-26T15:36:55.565Z,68.44
2022-11-26T15:39:31.628Z,68.33
2022-11-26T15:42:06.414Z,67.97
2022-11-26T15:44:42.104Z,67.74
2022-11-26T15:47:22.043Z,67.47
2022-11-26T15:49:55.209Z,67.65
2022-11-26T15:52:32.422Z,67.52
2022-11-26T15:55:12.807Z,67.30
2022-11-26T15:57:41.053Z,67.32
2022-11-26T16:00:53.004Z,67.11
2022-11-26T16:03:39.492Z,67.07
2022-11-26T16:06:10.367Z,67.30
2022-11-26T16:08:39.182Z,67.24
2022-11-26T16:11:21.497Z,67.24
2022-11-26T16:13:47.975Z,67.04
2022-11-26T16:16:25.158Z,67.42
2022-11-26T16:18:59.159Z,68.54
2022-11-26T16:21:33.157Z,68.44
2022-11-26T16:24:21.562Z,68.76
2022-11-26T16:27:01.737Z,68.41
2022-11-26T16:29:30.212Z,69.03
2022-11-26T16:31:57.030Z,68.11
2022-11-26T16:34:27.089Z,67.98
2022-11-26T16:37:22.532Z,67.40
2022-11-26T16:39:52.601Z,67.93
2022-11-26T16:42:23.414Z,68.20
2022-11-26T16:44:50.378Z,68.18
2022-11-26T16:47:31.905Z,68.52
2022-11-26T16:49:58.330Z,68.66
2022-11-26T16:52:24.853Z,68.95
2022-11-26T16:54:52.449Z,69.19
2022-11-26T16:57:23.110Z,68.91
2022-11-26T17:00:05.087Z,68.81
2022-11-26T17:02:33.356Z,69.69
2022-11-26T17:05:00.133Z,69.87
2022-11-26T17:07:37.978Z,70.30
2022-11-26T17:10:05.921Z,70.48
2022-11-26T17:12:32.370Z,69.85
2022-11-26T17:14:58.854Z,69.72
2022-11-26T17:17:29.285Z,69.51
2022-11-26T17:19:56.766Z,70.22
2022-11-26T17:22:24.717Z,69.97
2022-11-26T17:24:51.701Z,70.05
2022-11-26T17:27:21.210Z,69.58
2022-11-26T17:29:47.879Z,69.34
2022-11-26T17:32:17.704Z,68.89
2022-11-26T17:34:46.197Z,68.34
2022-11-26T17:37:19.863Z,68.69
2022-11-26T17:39:46.433Z,69.01
2022-11-26T17:42:12.912Z,69.89
2022-11-26T17:44:39.388Z,70.49
2022-11-26T17:47:17.299Z,70.68
2022-11-26T17:49:45.776Z,70.29
2022-11-26T17:52:13.476Z,70.07
2022-11-26T17:54:40.019Z,69.46
2022-11-26T17:57:06.799Z,69.18
2022-11-26T17:59:33.417Z,69.36
2022-11-26T18:02:01.660Z,69.80
2022-11-26T18:04:28.410Z,69.27
2022-11-26T18:07:06.749Z,69.43
2022-11-26T18:09:34.509Z,70.07
2022-11-26T18:12:02.726Z,70.59
2022-11-26T18:14:29.312Z,70.72
2022-11-26T18:16:55.945Z,71.13
2022-11-26T18:19:23.578Z,70.75
2022-11-26T18:21:51.329Z,70.21
2022-11-26T18:24:18.255Z,69.99
2022-11-26T18:26:44.887Z,70.02
2022-11-26T18:29:12.160Z,70.21
2022-11-26T18:31:40.103Z,69.47
2022-11-26T18:34:08.185Z,69.54
2022-11-26T18:36:34.856Z,69.46
2022-11-26T18:39:05.786Z,69.19
2022-11-26T18:41:33.065Z,69.21
2022-11-26T18:44:01.576Z,69.29
2022-11-26T18:46:29.081Z,69.61
2022-11-26T18:48:57.601Z,69.26
2022-11-26T18:51:24.832Z,69.44
2022-11-26T18:53:51.315Z,69.31
2022-11-26T18:56:22.658Z,69.79
2022-11-26T18:58:50.513Z,69.60
2022-11-26T19:01:26.394Z,69.39
2022-11-26T19:03:53.831Z,69.79
2022-11-26T19:06:27.479Z,70.18
2022-11-26T19:09:00.779Z,69.84
2022-11-26T19:11:28.795Z,70.28
2022-11-26T19:13:57.039Z,69.85
2022-11-26T19:16:25.210Z,69.68
2022-11-26T19:18:52.087Z,70.05
2022-11-26T19:21:26.440Z,70.20
2022-11-26T19:23:55.640Z,70.93
2022-11-26T19:26:23.436Z,71.04
2022-11-26T19:28:50.813Z,70.96
2022-11-26T19:31:22.131Z,70.75
2022-11-26T19:33:54.684Z,70.07
2022-11-26T19:36:22.345Z,70.44
2022-11-26T19:38:55.850Z,70.38
2022-11-26T19:41:25.802Z,70.52
2022-11-26T19:43:52.877Z,70.16
2022-11-26T19:46:22.700Z,70.07
2022-11-26T19:48:51.312Z,70.36
2022-11-26T19:51:21.226Z,70.20
2022-11-26T19:53:50.693Z,69.60
2022-11-26T19:56:24.395Z,69.14
2022-11-26T19:58:53.824Z,69.04
2022-11-26T20:01:22.077Z,69.40
2022-11-26T20:03:49.815Z,69.81
2022-11-26T20:06:26.150Z,69.27
2022-11-26T20:08:53.927Z,68.84
2022-11-26T20:11:20.476Z,68.49
2022-11-26T20:13:49.252Z,68.34
2022-11-26T20:16:25.779Z,68.63
2022-11-26T20:18:53.260Z,69.19
2022-11-26T20:21:25.480Z,69.68
2022-11-26T20:23:53.725Z,70.39
2022-11-26T20:26:37.064Z,69.73
2022-11-26T20:29:08.832Z,69.74
2022-11-26T20:31:39.492Z,69.20
2022-11-26T20:34:06.180Z,69.01
2022-11-26T20:36:32.699Z,68.84
2022-11-26T20:39:02.061Z,68.95
2022-11-26T20:41:29.867Z,69.12
2022-11-26T20:43:59.421Z,69.46
2022-11-26T20:46:28.522Z,69.23
2022-11-26T20:48:56.343Z,69.64
2022-11-26T20:51:23.504Z,69.89
2022-11-26T20:53:51.984Z,69.69
2022-11-26T20:56:20.996Z,69.32
2022-11-26T20:58:49.089Z,68.99
2022-11-26T21:01:20.229Z,68.79
2022-11-26T21:03:47.385Z,69.38
2022-11-26T21:06:16.865Z,68.99
2022-11-26T21:08:43.677Z,68.75
2022-11-26T21:11:11.816Z,68.67
2022-11-26T21:13:39.426Z,68.59
2022-11-26T21:16:11.493Z,68.97
2022-11-26T21:18:38.264Z,68.80
2022-11-26T21:21:11.073Z,68.42
2022-11-26T21:23:39.555Z,68.13
2022-11-26T21:26:08.346Z,68.41
2022-11-26T21:28:35.348Z,68.88
2022-11-26T21:31:11.491Z,68.53
2022-11-26T21:33:37.980Z,68.58
2022-11-26T21:36:11.034Z,68.78
2022-11-26T21:38:38.437Z,69.42
2022-11-26T21:41:13.029Z,69.20
2022-11-26T21:43:40.934Z,69.26
2022-11-26T21:46:12.916Z,69.04
2022-11-26T21:48:39.473Z,69.38
2022-11-26T21:51:16.433Z,69.86
2022-11-26T21:53:44.251Z,69.66
2022-11-26T21:56:21.324Z,69.32
2022-11-26T21:58:49.512Z,69.26
2022-11-26T22:01:23.293Z,69.41
2022-11-26T22:03:53.967Z,69.83
2022-11-26T22:06:22.836Z,70.05
2022-11-26T22:08:50.025Z,69.74
2022-11-26T22:11:21.634Z,69.02
2022-11-26T22:13:48.855Z,69.45
2022-11-26T22:16:19.551Z,69.48
2022-11-26T22:18:48.260Z,69.75
2022-11-26T22:21:27.570Z,69.97
2022-11-26T22:23:54.015Z,69.94
2022-11-26T22:26:21.435Z,70.30
2022-11-26T22:28:49.665Z,70.42
2022-11-26T22:31:30.478Z,69.75
2022-11-26T22:34:10.372Z,70.02
2022-11-26T22:36:38.837Z,70.25
2022-11-26T22:39:10.898Z,69.89
2022-11-26T22:41:40.321Z,69.94
2022-11-26T22:44:07.332Z,69.85
2022-11-26T22:46:34.307Z,69.55
2022-11-26T22:49:02.579Z,69.73
2022-11-26T22:51:32.517Z,69.46
2022-11-26T22:54:02.221Z,69.19
2022-11-26T22:56:30.184Z,69.54
2022-11-26T22:58:57.481Z,69.57
2022-11-26T23:01:32.030Z,69.13
2022-11-26T23:04:01.921Z,69.82
2022-11-26T23:06:31.258Z,69.63
2022-11-26T23:08:59.088Z,69.32
2022-11-26T23:11:32.701Z,69.43
2022-11-26T23:13:59.331Z,70.19
2022-11-26T23:16:26.981Z,70.19
2022-11-26T23:18:56.678Z,70.05
2022-11-26T23:21:29.323Z,70.31
2022-11-26T23:23:56.253Z,70.25
2022-11-26T23:26:27.953Z,70.40
2022-11-26T23:28:56.965Z,70.09
2022-11-26T23:31:30.994Z,69.80
2022-11-26T23:33:58.128Z,70.42
2022-11-26T23:36:26.661Z,70.31
2022-11-26T23:38:53.693Z,70.65
2022-11-26T23:41:20.469Z,70.70
2022-11-26T23:43:47.471Z,70.60
2022-11-26T23:46:35.252Z,70.32
2022-11-26T23:49:01.852Z,70.16
2022-11-26T23:51:31.258Z,70.16
2022-11-26T23:53:58.253Z,70.03
2022-11-26T23:56:31.661Z,70.00
2022-11-26T23:59:03.784Z,70.10
